Bayview, Wisconsin
Current Conditions -  °F | °C
As of 4:22 PM on Monday 26 Jan 2015 (Local Time) from KMKE Reporting Station
Light Snow Light Snow  
Wind Chill: 16°   Ceiling: 5000
Heat Index: 26°   Visibility: 7mi
Dew Point: 19°   Wind: 10mph
Humidity: 75%   Direction: 160°SSE
Pressure: 29.86"   Gusts: NA
Location:  42.9708°N, 87.8754°W
Report Text: KMKE 262222Z 16009KT 7SM -SN SCT015 OVC050 M03/M07 A2986 RMK AO2 P0000 T10331072
Loading
Personal Weather Stations






























Interactive Weather Map New forecast layout! Learn more

10-Day Weather Forecast

Advertisements
Track Severe Weather on mobile